WetterOnline ( https://www.wetteronline.at )

Wetter aktuell Berlin

Aktuelles Wetter: Berlin-Dahlem (70m)

6-stündlich | Neueste Meldungen
Ortszeit Temperatur Wetter
Do, 20.06. 20:00 23.1° C leicht bewölkt
Do, 20.06. 14:00 24.2° C leicht bewölkt
Do, 20.06. 8:00 20.0° C leichte Schauer
Do, 20.06. 2:00 22.9° C leichte Gewitter
Mi, 19.06. 20:00 28.6° C Schauer
Mi, 19.06. 14:00 30.0° C leicht bewölkt
Mi, 19.06. 8:00 19.9° C leicht bewölkt
Mi, 19.06. 2:00 18.7° C wolkig
Ortszeit Temperatur Wetter
Do, 20.06. 21:00 21.8° C leicht bewölkt
Do, 20.06. 20:00 23.1° C leicht bewölkt
Do, 20.06. 19:00 24.2° C leicht bewölkt
Do, 20.06. 18:00 24.3° C leicht bewölkt
Do, 20.06. 17:00 21.1° C leicht bewölkt
Do, 20.06. 16:00 23.3° C leichte Schauer
Ortszeit Relative Feuchte Sichtweite
Do, 20.06. 20:00 69% 40 km
Do, 20.06. 14:00 61% 45 km
Do, 20.06. 8:00 83% 25 km
Do, 20.06. 2:00 55% 50 km
Mi, 19.06. 20:00 44% 45 km
Mi, 19.06. 14:00 45% 50 km
Mi, 19.06. 8:00 77% 45 km
Mi, 19.06. 2:00 69% 45 km
Ortszeit Relative Feuchte Sichtweite
Do, 20.06. 21:00 76% 40 km
Do, 20.06. 20:00 69% 40 km
Do, 20.06. 19:00 61% 40 km
Do, 20.06. 18:00 61% 40 km
Do, 20.06. 17:00 90% 30 km
Do, 20.06. 16:00 62% 25 km
Ortszeit Niederschlagsmenge Niederschlagsart
Do, 20.06. 20:00 1 l/m2 in 12 Std. Gewitter, Schauer
Do, 20.06. 14:00 0.4 l/m2 in 6 Std. Regenschauer
Do, 20.06. 8:00 0.9 l/m2 in 12 Std. Gewitter, Schauer
Do, 20.06. 2:00 0.1 l/m2 in 6 Std. Schauer
Mi, 19.06. 20:00 0.1 l/m2 in 12 Std. Gewitter
Mi, 19.06. 14:00 0.0 l/m2 in 6 Std. -
Mi, 19.06. 8:00 0.0 l/m2 in 12 Std. -
Mi, 19.06. 2:00 0.0 l/m2 in 6 Std. -
Ortszeit Niederschlagsmenge Niederschlagsart
Do, 20.06. 21:00 keine Meldung -
Do, 20.06. 20:00 keine Meldung -
Do, 20.06. 19:00 keine Meldung -
Do, 20.06. 18:00 keine Meldung -
Do, 20.06. 17:00 keine Meldung -
Do, 20.06. 16:00 keine Meldung -
Ortszeit Stärke Spitze Richtung
km/h Bft. km/h Grad Sektor
Do, 20.06. 20:00 4 1 - 320° NW
Do, 20.06. 14:00 11 2 54 290° W
Do, 20.06. 8:00 7 2 47 140° SO
Do, 20.06. 2:00 14 3 - 310° NW
Mi, 19.06. 20:00 14 3 - 160° S
Mi, 19.06. 14:00 11 2 - 180° S
Mi, 19.06. 8:00 7 2 - 140° SO
Mi, 19.06. 2:00 11 2 - 130° SO
Ortszeit Stärke Spitze Richtung
km/h Bft. km/h Grad Sektor
Do, 20.06. 21:00 7 2 - 200° S
Do, 20.06. 20:00 4 1 - 320° NW
Do, 20.06. 19:00 11 2 - 280° W
Do, 20.06. 18:00 7 2 - 270° W
Do, 20.06. 17:00 4 1 - 250° W
Do, 20.06. 16:00 14 3 - 280° W
Ortszeit Untergrenze Bedeckung Gattung
total tief tief mittel hoch
Do, 20.06. 20:00 1200 m 4/8 1/8 Cu Ac Ci
Do, 20.06. 14:00 1050 m 6/8 2/8 Cu Ac Cs
Do, 20.06. 8:00 1800 m 7/8 5/8 Cb Ac -
Do, 20.06. 2:00 3300 m 7/8 2/8 Cb As Ci
Mi, 19.06. 20:00 7800 m 6/8 3/8 Cb - Ci
Mi, 19.06. 14:00 1800 m 6/8 2/8 Cu - Cs
Mi, 19.06. 8:00 1800 m 6/8 1/8 Cu - Ci
Mi, 19.06. 2:00 2400 m 5/8 1/8 Cu Ac Ci
Ortszeit Bedeckungsgrad in Achtel und Wolkenuntergrenze
Do, 20.06. 21:00 1(1200m) 4(7800m) 2(1200m)
Do, 20.06. 20:00 1(1200m) 3(7800m)
Do, 20.06. 19:00 2(1200m)
Do, 20.06. 18:00 1(1200m) 3(7200m)
Do, 20.06. 17:00 1(1200m) 3(4200m) 2(990m)
Do, 20.06. 16:00 2(1200m) 4(7200m) 3(1020m)
Ortszeit Luftdruck NN (hPa) Tendenz (hPa in 3 Std.)
Do, 20.06. 20:00 1011 + 0,3
Do, 20.06. 14:00 1011 + 0,7
Do, 20.06. 8:00 1008 + 0,3
Do, 20.06. 2:00 1008 + 0,4
Mi, 19.06. 20:00 1007 - 0,5
Mi, 19.06. 14:00 1009 - 1,3
Mi, 19.06. 8:00 1012 - 0,7
Mi, 19.06. 2:00 1013 - 0,5
Ortszeit Luftdruck NN (hPa) Tendenz (hPa in 3 Std.)
Do, 20.06. 21:00 1011 + 0,7
Do, 20.06. 20:00 1011 + 0,3
Do, 20.06. 19:00 1010 - 0,5
Do, 20.06. 18:00 1011 - 0,1
Do, 20.06. 17:00 1011 - 0,4
Do, 20.06. 16:00 1011 - 0,1
Ortszeit Schneehöhe (cm)
Do, 20.06. 20:00 0
Do, 20.06. 14:00 0
Do, 20.06. 8:00 0
Do, 20.06. 2:00 0
Mi, 19.06. 20:00 0
Mi, 19.06. 14:00 0
Mi, 19.06. 8:00 0
Mi, 19.06. 2:00 0
Ortszeit Schneehöhe (cm)
Do, 20.06. 21:00 -
Do, 20.06. 20:00 0
Do, 20.06. 19:00 -
Do, 20.06. 18:00 -
Do, 20.06. 17:00 -
Do, 20.06. 16:00 -
Link zu dieser Seite / Seite empfehlen

Das Wetter in ...